Home > Products > Valid Products > MTR

000
SAUS44 KMEG 062159 COR
MTRTUP
METAR KTUP 062153Z AUTO 34009KT 10SM FEW070 23/06 A3000 RMK AO2
SLP157 T02280061





000
SAUS44 KMEG 062159 COR
MTRTUP
METAR KTUP 062153Z AUTO 34009KT 10SM FEW070 23/06 A3000 RMK AO2
SLP157 T02280061





000
SAUS44 KMEG 062058 COR
MTRTUP
METAR KTUP 062053Z AUTO 31008KT 10SM FEW070 22/05 A3001 RMK AO2
SLP161 T02220050 58015





000
SAUS44 KMEG 062058 COR
MTRTUP
METAR KTUP 062053Z AUTO 31008KT 10SM FEW070 22/05 A3001 RMK AO2
SLP161 T02220050 58015





000
SAUS44 KMEG 061957 COR
MTRTUP
METAR KTUP 061953Z AUTO 30010KT 10SM FEW070 23/05 A3003 RMK AO2
SLP168 T02280050





000
SAUS44 KMEG 061858 COR
MTRTUP
METAR KTUP 061853Z 31011G17KT 10SM FEW065 22/06 A3004 RMK AO2 SLP172
T02220056





000
SAUS44 KMEG 061758 COR
MTRTUP
METAR KTUP 061753Z 34008KT 10SM FEW060 22/06 A3006 RMK AO2 SLP176
T02170061 10217 20094 58005





000
SAUS44 KMEG 061658 COR
MTRTUP
METAR KTUP 061653Z 01008KT 10SM CLR 21/06 A3007 RMK AO2 SLP182
T02110061





000
SAUS44 KMEG 061558 COR
MTRTUP
METAR KTUP 061553Z VRB06KT 10SM CLR 19/07 A3008 RMK AO2 SLP183
T01940072





000
SAUS44 KMEG 061458 COR
MTRTUP
METAR KTUP 061453Z 34009KT 10SM CLR 18/08 A3007 RMK AO2 SLP182
T01780078 50002





000
SAUS44 KMEG 061359 COR
MTRTUP
METAR KTUP 061353Z 34008KT 10SM CLR 16/08 A3008 RMK AO2 SLP184
T01610078





000
SAUS44 KMEG 061359 COR
MTRTUP
METAR KTUP 061353Z 34008KT 10SM CLR 16/08 A3008 RMK AO2 SLP184
T01610078





000
SAUS44 KMEG 061258 COR
MTRTUP
METAR KTUP 061253Z 35005KT 10SM CLR 13/08 A3008 RMK AO2 SLP184
T01280078





000
SAUS44 KMEG 061158 COR
MTRTUP
METAR KTUP 061153Z 00000KT 10SM CLR 09/07 A3007 RMK AO2 SLP180
T00940067 10106 20078 53017





000
SAUS44 KMEG 061158 COR
MTRTUP
METAR KTUP 061153Z 00000KT 10SM CLR 09/07 A3007 RMK AO2 SLP180
T00940067 10106 20078 53017





000
SAUS44 KMEG 061057 COR
MTRTUP
METAR KTUP 061053Z 00000KT 10SM CLR 08/06 A3005 RMK AO2 SLP173
T00830056





000
SAUS44 KMEG 060958 COR
MTRTUP
METAR KTUP 060953Z AUTO 00000KT 10SM CLR 08/05 A3003 RMK AO2 SLP167
T00830050





000
SAUS44 KMEG 060858 COR
MTRTUP
METAR KTUP 060853Z AUTO 00000KT 10SM CLR 09/05 A3002 RMK AO2 SLP163
T00890050 53002





000
SAUS44 KMEG 060757 COR
MTRTUP
METAR KTUP 060753Z AUTO 30003KT 10SM CLR 09/05 A3001 RMK AO2 SLP160
T00940050





000
SAUS44 KMEG 060658 COR
MTRTUP
METAR KTUP 060653Z AUTO 30003KT 10SM CLR 10/06 A3001 RMK AO2 SLP161
T01000056





000
SAUS44 KMEG 060658 COR
MTRTUP
METAR KTUP 060653Z AUTO 30003KT 10SM CLR 10/06 A3001 RMK AO2 SLP161
T01000056





000
SAUS44 KMEG 060558 COR
MTRTUP
METAR KTUP 060553Z AUTO 00000KT 10SM CLR 10/05 A3001 RMK AO2 SLP161
T01000050 10189 20100 402170089 51012





000
SAUS44 KMEG 060458 COR
MTRTUP
METAR KTUP 060453Z AUTO 35005KT 10SM CLR 11/06 A3001 RMK AO2 SLP159
T01060056





000
SAUS44 KMEG 060458 COR
MTRTUP
METAR KTUP 060453Z AUTO 35005KT 10SM CLR 11/06 A3001 RMK AO2 SLP159
T01060056





000
SAUS44 KMEG 060357 COR
MTRTUP
METAR KTUP 060353Z AUTO 36010KT 10SM CLR 14/05 A3000 RMK AO2 SLP156
T01390050





000
SAUS44 KMEG 060258 COR
MTRTUP
METAR KTUP 060253Z 35009KT 10SM CLR 14/06 A2998 RMK AO2 SLP149
T01390061 53021





000
SAUS44 KMEG 060200 COR
MTRTUP
METAR KTUP 060153Z 34009KT 10SM CLR 14/06 A2995 RMK AO2 SLP141
T01440061





000
SAUS44 KMEG 060200 COR
MTRTUP
METAR KTUP 060153Z 34009KT 10SM CLR 14/06 A2995 RMK AO2 SLP141
T01440061





000
SAUS44 KMEG 060058 COR
MTRTUP
METAR KTUP 060053Z 33010KT 10SM CLR 17/05 A2993 RMK AO2 SLP134
T01670050





000
SAUS44 KMEG 060058 COR
MTRTUP
METAR KTUP 060053Z 33010KT 10SM CLR 17/05 A2993 RMK AO2 SLP134
T01670050





000
SAUS44 KMEG 052357 COR
MTRTUP
METAR KTUP 052353Z 33010KT 10SM FEW065 19/04 A2991 RMK AO2 SLP128
T01890039 10217 20189 53008





000
SAUS44 KMEG 052258 COR
MTRTUP
METAR KTUP 052253Z 31013G22KT 10SM CLR 20/02 A2991 RMK AO2 SLP125
T02000022





000
SAUS44 KMEG 052258 COR
MTRTUP
METAR KTUP 052253Z 31013G22KT 10SM CLR 20/02 A2991 RMK AO2 SLP125
T02000022





000
SAUS44 KMEG 052200 COR
MTRTUP
METAR KTUP 052153Z 31013G19KT 10SM CLR 21/01 A2989 RMK AO2 PK WND
31026/2103 SLP120 T02110011





000
SAUS44 KMEG 052057 COR
MTRTUP
METAR KTUP 052053Z 30013G22KT 10SM CLR 22/M01 A2989 RMK AO2 SLP120
T02171006 56006





000
SAUS44 KMEG 052057 COR
MTRTUP
METAR KTUP 052053Z 30013G22KT 10SM CLR 22/M01 A2989 RMK AO2 SLP120
T02171006 56006





000
SAUS44 KMEG 051958 COR
MTRTUP
METAR KTUP 051953Z 30012G19KT 10SM CLR 22/01 A2989 RMK AO2 SLP120
T02170006





000
SAUS44 KMEG 051858 COR
MTRTUP
METAR KTUP 051853Z 30015G21KT 250V330 10SM CLR 21/02 A2990 RMK AO2
SLP122 T02110017





000
SAUS44 KMEG 051757 COR
MTRTUP
METAR KTUP 051753Z 31014G21KT 10SM CLR 21/02 A2991 RMK AO2 SLP125
T02110017 10211 20100 58006





000
SAUS44 KMEG 051757 COR
MTRTUP
METAR KTUP 051753Z 31014G21KT 10SM CLR 21/02 A2991 RMK AO2 SLP125
T02110017 10211 20100 58006





000
SAUS44 KMEG 051657 COR
MTRTUP
METAR KTUP 051653Z 29013G23KT 10SM FEW065 20/03 A2993 RMK AO2 PK WND
31027/1628 SLP131 T02000033





000
SAUS44 KMEG 051657 COR
MTRTUP
METAR KTUP 051653Z 29013G23KT 10SM FEW065 20/03 A2993 RMK AO2 PK WND
31027/1628 SLP131 T02000033





000
SAUS44 KMEG 051557 COR
MTRTUP
METAR KTUP 051553Z 29011G19KT 10SM CLR 19/04 A2993 RMK AO2 SLP132
T01890044





000
SAUS44 KMEG 051457 COR
MTRTUP
METAR KTUP 051453Z 29010G15KT 10SM CLR 18/06 A2993 RMK AO2 SLP132
T01830056 51009





000
SAUS44 KMEG 051457 COR
MTRTUP
METAR KTUP 051453Z 29010G15KT 10SM CLR 18/06 A2993 RMK AO2 SLP132
T01830056 51009





000
SAUS44 KMEG 051357 COR
MTRTUP
METAR KTUP 051353Z 26008KT 230V290 10SM CLR 16/06 A2992 RMK AO2
SLP130 T01610056





000
SAUS44 KMEG 051257 COR
MTRTUP
METAR KTUP 051253Z 24004KT 10SM CLR 13/07 A2992 RMK AO2 SLP129
T01330072





000
SAUS44 KMEG 051257 COR
MTRTUP
METAR KTUP 051253Z 24004KT 10SM CLR 13/07 A2992 RMK AO2 SLP129
T01330072





000
SAUS44 KMEG 051158 COR
MTRTUP
METAR KTUP 051153Z 24004KT 10SM CLR 10/07 A2990 RMK AO2 SLP123 70011
T01000067 10122 20089 53008





000
SAUS44 KMEG 051158 COR
MTRTUP
METAR KTUP 051153Z 24004KT 10SM CLR 10/07 A2990 RMK AO2 SLP123 70011
T01000067 10122 20089 53008





000
SAUS44 KMEG 051058 COR
MTRTUP
METAR KTUP 051053Z 24004KT 10SM CLR 09/07 A2989 RMK AO2 SLP119
T00890067





000
SAUS44 KMEG 051058 COR
MTRTUP
METAR KTUP 051053Z 24004KT 10SM CLR 09/07 A2989 RMK AO2 SLP119
T00890067





000
SAUS44 KMEG 050957 COR
MTRTUP
METAR KTUP 050953Z AUTO 23003KT 10SM CLR 09/07 A2988 RMK AO2 SLP116
T00940067





000
SAUS44 KMEG 050858 COR
MTRTUP
METAR KTUP 050853Z AUTO 00000KT 10SM CLR 10/07 A2988 RMK AO2 SLP114
T01000067 58001





000
SAUS44 KMEG 050800 COR
MTRTUP
METAR KTUP 050753Z AUTO 32004KT 10SM CLR 12/07 A2988 RMK AO2 SLP115
T01170067





000
SAUS44 KMEG 050659 COR
MTRTUP
METAR KTUP 050653Z AUTO 35007KT 10SM CLR 12/07 A2988 RMK AO2 SLP115
T01170067





000
SAUS44 KMEG 050559 COR
MTRTUP
METAR KTUP 050553Z AUTO 35008KT 10SM FEW095 12/08 A2988 RMK AO2
SLP114 T01220083 10189 20122 402500100 51018





000
SAUS44 KMEG 050559 COR
MTRTUP
METAR KTUP 050553Z AUTO 35008KT 10SM FEW095 12/08 A2988 RMK AO2
SLP114 T01220083 10189 20122 402500100 51018





000
SAUS44 KMEG 050457 COR
MTRTUP
METAR KTUP 050453Z AUTO 35005KT 10SM CLR 13/09 A2986 RMK AO2 SLP108
T01330094





000
SAUS44 KMEG 050357 COR
MTRTUP
METAR KTUP 050353Z AUTO 31003KT 10SM SCT090 14/12 A2984 RMK AO2
SLP103 T01390117





000
SAUS44 KMEG 050258 COR
MTRTUP
METAR KTUP 050253Z 00000KT 10SM CLR 14/12 A2982 RMK AO2 SLP096
T01390122 53024





000
SAUS44 KMEG 050258 COR
MTRTUP
METAR KTUP 050253Z 00000KT 10SM CLR 14/12 A2982 RMK AO2 SLP096
T01390122 53024





000
SAUS44 KMEG 050157 COR
MTRTUP
METAR KTUP 050153Z 00000KT 10SM CLR 16/12 A2980 RMK AO2 SLP087
T01560122





000
SAUS44 KMEG 050058 COR
MTRTUP
METAR KTUP 050053Z 27004KT 10SM CLR 17/13 A2977 RMK AO2 SLP079
T01720133





000
SAUS44 KMEG 042357 COR
MTRTUP
METAR KTUP 042353Z 28005KT 10SM CLR 19/13 A2975 RMK AO2 SLP073 60011
T01890133 10250 20167 51002





000
SAUS44 KMEG 042357 COR
MTRTUP
METAR KTUP 042353Z 28005KT 10SM CLR 19/13 A2975 RMK AO2 SLP073 60011
T01890133 10250 20167 51002





000
SAUS44 KMEG 042258 COR
MTRTUP
METAR KTUP 042253Z 27006KT 7SM FEW047 BKN080 OVC095 17/12 A2975 RMK
AO2 PK WND 30035/2156 WSHFT 2146 RAE19B36E50 SLP073 P0011 T01720117





000
SAUS44 KMEG 042258 COR
MTRTUP
METAR KTUP 042253Z 27006KT 7SM FEW047 BKN080 OVC095 17/12 A2975 RMK
AO2 PK WND 30035/2156 WSHFT 2146 RAE19B36E50 SLP073 P0011 T01720117





000
SAUS44 KMEG 042253 COR
MTRTUP
SPECI KTUP 042248Z 25007G21KT 2 1/2SM -RA FEW043 BKN080 OVC100 17/12
A2976 RMK AO2 PK WND 30035/2156 WSHFT 2146 RAE19B36 P0011





000
SAUS44 KMEG 042158 COR
MTRTUP
METAR KTUP 042153Z 27011G18KT 9SM -RA SCT070 BKN090 22/09 A2975 RMK
AO2 RAB50 SLP071 P0000 T02170094





000
SAUS44 KMEG 042158 COR
MTRTUP
METAR KTUP 042153Z 27011G18KT 9SM -RA SCT070 BKN090 22/09 A2975 RMK
AO2 RAB50 SLP071 P0000 T02170094





000
SAUS44 KMEG 042057 COR
MTRTUP
METAR KTUP 042053Z 26007KT 10SM BKN075 BKN095 OVC110 23/07 A2975 RMK
AO2 SLP070 T02280072 56026





000
SAUS44 KMEG 041957 COR
MTRTUP
METAR KTUP 041953Z 23014G19KT 10SM FEW070 24/08 A2976 RMK AO2 SLP076
T02440078





000
SAUS44 KMEG 041900 COR
MTRTUP
METAR KTUP 041853Z 24011G18KT 10SM SCT070 24/08 A2979 RMK AO2 SLP085
T02390083





000
SAUS44 KMEG 041900 COR
MTRTUP
METAR KTUP 041853Z 24011G18KT 10SM SCT070 24/08 A2979 RMK AO2 SLP085
T02390083





000
SAUS44 KMEG 041758 COR
MTRTUP
METAR KTUP 041753Z 24012G19KT 10SM FEW070 23/08 A2982 RMK AO2 SLP096
T02330078 10233 20117 58021





000
SAUS44 KMEG 041758 COR
MTRTUP
METAR KTUP 041753Z 24012G19KT 10SM FEW070 23/08 A2982 RMK AO2 SLP096
T02330078 10233 20117 58021





000
SAUS44 KMEG 041557 COR
MTRTUP
METAR KTUP 041553Z 24007KT 180V300 10SM CLR 21/07 A2988 RMK AO2
SLP114 T02110067





000
SAUS44 KMEG 041458 COR
MTRTUP
METAR KTUP 041453Z VRB06KT 10SM CLR 20/08 A2989 RMK AO2 SLP118
T02000083 58007





000
SAUS44 KMEG 041357 COR
MTRTUP
METAR KTUP 041353Z VRB04KT 10SM CLR 17/09 A2990 RMK AO2 SLP121
T01720094





000
SAUS44 KMEG 041357 COR
MTRTUP
METAR KTUP 041353Z VRB04KT 10SM CLR 17/09 A2990 RMK AO2 SLP121
T01720094





000
SAUS44 KMEG 041258 COR
MTRTUP
METAR KTUP 041253Z VRB06KT 10SM CLR 14/09 A2991 RMK AO2 SLP125
T01440094





000
SAUS44 KMEG 041258 COR
MTRTUP
METAR KTUP 041253Z VRB06KT 10SM CLR 14/09 A2991 RMK AO2 SLP125
T01440094





000
SAUS44 KMEG 041158 COR
MTRTUP
METAR KTUP 041153Z 23003KT 10SM CLR 12/09 A2991 RMK AO2 SLP126
T01170089 10122 20100 56005





000
SAUS44 KMEG 041058 COR
MTRTUP
METAR KTUP 041053Z 22003KT 10SM CLR 10/08 A2991 RMK AO2 SLP127
T01000078





000
SAUS44 KMEG 041058 COR
MTRTUP
METAR KTUP 041053Z 22003KT 10SM CLR 10/08 A2991 RMK AO2 SLP127
T01000078





000
SAUS44 KMEG 040957 COR
MTRTUP
METAR KTUP 040953Z AUTO 00000KT 10SM CLR 10/08 A2992 RMK AO2 SLP129
T01000078





000
SAUS44 KMEG 040858 COR
MTRTUP
METAR KTUP 040853Z AUTO 00000KT 10SM CLR 11/08 A2993 RMK AO2 SLP131
T01060083 56010





000
SAUS44 KMEG 040858 COR
MTRTUP
METAR KTUP 040853Z AUTO 00000KT 10SM CLR 11/08 A2993 RMK AO2 SLP131
T01060083 56010





000
SAUS44 KMEG 040758 COR
MTRTUP
METAR KTUP 040753Z AUTO 00000KT 10SM CLR 11/09 A2993 RMK AO2 SLP133
T01110089





000
SAUS44 KMEG 040700 COR
MTRTUP
METAR KTUP 040653Z AUTO 27003KT 10SM CLR 12/09 A2994 RMK AO2 SLP137
T01170089





000
SAUS44 KMEG 040557 COR
MTRTUP
METAR KTUP 040553Z AUTO 27003KT 10SM CLR 12/09 A2995 RMK AO2 SLP141
T01220089 10183 20122 402220122 58003





000
SAUS44 KMEG 040557 COR
MTRTUP
METAR KTUP 040553Z AUTO 27003KT 10SM CLR 12/09 A2995 RMK AO2 SLP141
T01220089 10183 20122 402220122 58003





000
SAUS44 KMEG 040457 COR
MTRTUP
METAR KTUP 040453Z AUTO 27003KT 10SM CLR 13/09 A2996 RMK AO2 SLP142
T01280094





000
SAUS44 KMEG 040457 COR
MTRTUP
METAR KTUP 040453Z AUTO 27003KT 10SM CLR 13/09 A2996 RMK AO2 SLP142
T01280094





000
SAUS44 KMEG 040400 COR
MTRTUP
METAR KTUP 040353Z AUTO 28003KT 10SM CLR 13/09 A2996 RMK AO2 SLP144
T01330094





000
SAUS44 KMEG 040257 COR
MTRTUP
METAR KTUP 040253Z 29004KT 10SM CLR 14/09 A2996 RMK AO2 SLP144
T01440094 51009





000
SAUS44 KMEG 040257 COR
MTRTUP
METAR KTUP 040253Z 29004KT 10SM CLR 14/09 A2996 RMK AO2 SLP144
T01440094 51009





000
SAUS44 KMEG 040157 COR
MTRTUP
METAR KTUP 040153Z 28003KT 10SM CLR 16/09 A2996 RMK AO2 SLP143
T01560094





000
SAUS44 KMEG 040157 COR
MTRTUP
METAR KTUP 040153Z 28003KT 10SM CLR 16/09 A2996 RMK AO2 SLP143
T01560094





000
SAUS44 KMEG 040059 COR
MTRTUP
METAR KTUP 040053Z 30007KT 10SM SCT070 17/09 A2995 RMK AO2 SLP139
T01720094





000
SAUS44 KMEG 032357 COR
MTRTUP
METAR KTUP 032353Z VRB05KT 10SM BKN065 18/09 A2994 RMK AO2 SLP134
T01830089 10222 20183 53002





000
SAUS44 KMEG 032257 COR
MTRTUP
METAR KTUP 032253Z 29007G17KT 10SM BKN060 19/08 A2992 RMK AO2 SLP130
T01940083





000
SAUS44 KMEG 032257 COR
MTRTUP
METAR KTUP 032253Z 29007G17KT 10SM BKN060 19/08 A2992 RMK AO2 SLP130
T01940083





    US Dept of Commerce
    National Oceanic and Atmospheric Administration
    National Weather Service
    1325 East West Highway
    Silver Spring, MD 20910
    Page Author: NWS Internet Services Team
Disclaimer
Information Quality
Credits
Glossary
Privacy Policy
Freedom of Information Act (FOIA)
About Us
Career Opportunities